Time;durP1;ratioP1;P1;durP2;ratioP2;P2;SDS_P1;SDS_P2;PMS_P1;PMS_P2;Temp;Humidity;BMP_temperature;BMP_pressure;BME280_temperature;BME280_humidity;BME280_pressure;Samples;Min_cycle;Max_cycle;Signal;HPM_P1;HPM_P2
2022/11/21 00:00:21;;;;;;;1.60;1.50;;;17.70;69.70;;;;;;4994723;28;20048;-18
2022/11/21 00:02:47;;;;;;;1.60;1.50;;;17.60;69.70;;;;;;4995546;28;20196;-18
2022/11/21 00:05:13;;;;;;;1.75;1.65;;;17.50;70.20;;;;;;4993802;28;20128;-19
2022/11/21 00:07:38;;;;;;;1.60;1.50;;;17.60;69.90;;;;;;4991372;28;20111;-19
2022/11/21 00:10:04;;;;;;;1.70;1.60;;;17.60;69.90;;;;;;4991971;28;20093;-18
2022/11/21 00:12:30;;;;;;;1.40;1.30;;;17.60;69.80;;;;;;4992361;28;20037;-17
2022/11/21 00:14:55;;;;;;;1.65;1.50;;;17.70;69.60;;;;;;4997399;28;20038;-19
2022/11/21 00:17:21;;;;;;;1.65;1.55;;;17.60;69.60;;;;;;5003998;28;20042;-18
2022/11/21 00:19:46;;;;;;;1.38;1.27;;;17.60;69.50;;;;;;5006556;28;20034;-19
2022/11/21 00:22:12;;;;;;;1.90;1.45;;;17.70;69.50;;;;;;5005246;28;20422;-19
2022/11/21 00:24:38;;;;;;;1.70;1.60;;;17.50;69.90;;;;;;4994611;28;22104;-18
2022/11/21 00:27:03;;;;;;;1.45;1.35;;;17.50;70.00;;;;;;4991522;28;20050;-23
2022/11/21 00:29:29;;;;;;;1.55;1.45;;;17.50;70.20;;;;;;4993542;28;20050;-18
2022/11/21 00:31:55;;;;;;;1.95;1.85;;;17.50;69.90;;;;;;4992668;28;20558;-20
2022/11/21 00:34:20;;;;;;;2.03;1.83;;;17.40;70.30;;;;;;4992447;28;20042;-18
2022/11/21 00:36:46;;;;;;;1.60;1.50;;;17.50;69.90;;;;;;4995788;28;20027;-18
2022/11/21 00:39:11;;;;;;;1.65;1.55;;;17.50;69.90;;;;;;4996272;28;20161;-22
2022/11/21 00:41:37;;;;;;;1.55;1.45;;;17.40;70.80;;;;;;5003879;28;20415;-18
2022/11/21 00:44:02;;;;;;;1.65;1.55;;;17.40;70.40;;;;;;5006757;28;20124;-18
2022/11/21 00:46:28;;;;;;;1.65;1.55;;;17.40;70.30;;;;;;4996746;28;20050;-16
2022/11/21 00:48:54;;;;;;;2.30;1.73;;;17.50;70.00;;;;;;4990163;28;20043;-15
2022/11/21 00:51:19;;;;;;;1.60;1.50;;;17.40;70.00;;;;;;4993859;28;20121;-20
2022/11/21 00:53:45;;;;;;;1.73;1.63;;;17.50;69.80;;;;;;4990985;28;20509;-17
2022/11/21 00:56:10;;;;;;;1.75;1.65;;;17.50;69.70;;;;;;4992415;28;20058;-16
2022/11/21 00:58:36;;;;;;;1.70;1.60;;;17.50;69.40;;;;;;4994032;28;20034;-15
2022/11/21 01:01:06;;;;;;;1.27;1.17;;;17.50;69.70;;;;;;4992726;28;20329;-14
2022/11/21 01:03:33;;;;;;;1.10;1.10;;;17.40;70.00;;;;;;5001650;28;20042;-16
2022/11/21 01:06:02;;;;;;;1.45;1.35;;;17.50;69.80;;;;;;5006394;28;20038;-15
2022/11/21 01:08:28;;;;;;;1.63;1.52;;;17.50;69.60;;;;;;4997431;28;20038;-15
2022/11/21 01:10:54;;;;;;;1.20;1.10;;;17.30;70.00;;;;;;5010612;28;20044;-15
2022/11/21 01:13:19;;;;;;;1.73;1.63;;;17.40;70.00;;;;;;5011856;28;20038;-22
2022/11/21 01:15:45;;;;;;;1.73;1.63;;;17.40;70.00;;;;;;5000595;28;20031;-15
2022/11/21 01:18:10;;;;;;;1.50;1.40;;;17.30;70.40;;;;;;4997209;28;20104;-15
2022/11/21 01:20:39;;;;;;;1.13;1.02;;;17.30;70.30;;;;;;4994531;28;20402;-15
2022/11/21 01:23:05;;;;;;;1.55;1.45;;;17.30;70.50;;;;;;5005916;28;20116;-16
2022/11/21 01:25:33;;;;;;;1.00;1.00;;;17.20;71.30;;;;;;4993633;28;20098;-16
2022/11/21 01:27:58;;;;;;;1.25;1.23;;;17.30;70.40;;;;;;5010441;28;20129;-15
2022/11/21 01:30:24;;;;;;;1.00;1.00;;;17.40;70.00;;;;;;5012455;28;20164;-20
2022/11/21 01:32:50;;;;;;;1.52;1.42;;;17.30;70.30;;;;;;5009158;28;20048;-16
2022/11/21 01:35:16;;;;;;;1.55;1.45;;;17.40;70.20;;;;;;5012795;28;20034;-15
2022/11/21 01:37:41;;;;;;;1.35;1.25;;;17.30;70.30;;;;;;5004892;28;20068;-15
2022/11/21 01:40:08;;;;;;;1.00;0.90;;;17.20;70.80;;;;;;5013837;28;20042;-15
2022/11/21 01:43:05;;;;;;;1.50;1.40;;;17.20;70.50;;;;;;5009538;28;20044;-14
2022/11/21 01:46:06;;;;;;;1.15;1.08;;;17.30;70.20;;;;;;4998465;28;20550;-14
2022/11/21 01:48:48;;;;;;;1.00;1.00;;;17.30;70.20;;;;;;4991363;28;20125;-15
2022/11/21 01:51:22;;;;;;;1.60;1.40;;;17.30;70.20;;;;;;4998346;28;20127;-15
2022/11/21 01:53:58;;;;;;;1.60;1.50;;;17.10;70.60;;;;;;5004202;28;20042;-15
2022/11/21 01:56:23;;;;;;;1.20;1.02;;;17.30;70.10;;;;;;4989527;28;20104;-16
2022/11/21 01:58:49;;;;;;;1.15;1.13;;;17.10;70.60;;;;;;4984686;28;20027;-15
2022/11/21 02:01:15;;;;;;;1.60;1.50;;;17.20;70.40;;;;;;4989876;28;20045;-15
2022/11/21 02:03:40;;;;;;;1.17;1.08;;;17.10;70.50;;;;;;4980201;28;20124;-15
2022/11/21 02:06:06;;;;;;;1.20;1.10;;;17.10;70.70;;;;;;4998594;28;20463;-16
2022/11/21 02:08:31;;;;;;;1.33;1.23;;;17.20;70.10;;;;;;4994053;28;20044;-15
2022/11/21 02:11:26;;;;;;;1.25;1.15;;;17.20;70.20;;;;;;4998543;28;20778;-15
2022/11/21 02:13:51;;;;;;;1.17;1.15;;;17.10;70.40;;;;;;4963640;28;20046;-15
2022/11/21 02:16:17;;;;;;;1.00;1.00;;;17.10;70.60;;;;;;4984472;28;20062;-14
2022/11/21 02:18:42;;;;;;;1.30;1.20;;;17.10;70.50;;;;;;4998655;28;20022;-16
2022/11/21 02:21:14;;;;;;;0.93;0.93;;;17.20;70.70;;;;;;5000302;28;20077;-14
2022/11/21 02:24:04;;;;;;;1.25;1.15;;;17.10;70.70;;;;;;4997314;28;20043;-16
2022/11/21 02:26:29;;;;;;;0.90;0.90;;;17.10;70.50;;;;;;5014399;28;20069;-15
2022/11/21 02:28:55;;;;;;;1.40;1.30;;;17.20;70.50;;;;;;5009678;28;20069;-15
2022/11/21 02:31:21;;;;;;;0.95;0.95;;;17.10;70.20;;;;;;5009362;28;20069;-15
2022/11/21 02:33:46;;;;;;;1.45;1.35;;;17.20;70.40;;;;;;4994964;28;20042;-15
2022/11/21 02:36:42;;;;;;;1.15;1.05;;;17.20;70.10;;;;;;4999464;28;20520;-15
2022/11/21 02:39:29;;;;;;;0.73;0.73;;;17.40;69.70;;;;;;5005412;28;20052;-16
2022/11/21 02:42:27;;;;;;;0.75;0.75;;;17.30;69.90;;;;;;5005687;28;20578;-15
2022/11/21 02:45:09;;;;;;;1.05;0.90;;;17.20;70.20;;;;;;4988879;28;20050;-14
2022/11/21 02:47:35;;;;;;;1.23;1.13;;;17.20;70.20;;;;;;4992922;28;20392;-16
2022/11/21 02:50:02;;;;;;;0.90;0.68;;;17.20;70.10;;;;;;4993356;28;20042;-15
2022/11/21 02:52:28;;;;;;;0.77;0.77;;;17.10;70.30;;;;;;4995328;28;20053;-15
2022/11/21 02:54:53;;;;;;;0.98;0.93;;;17.20;70.10;;;;;;4990728;28;20077;-15
2022/11/21 02:57:19;;;;;;;1.30;1.20;;;17.20;70.20;;;;;;4994739;28;20125;-15
2022/11/21 02:59:45;;;;;;;1.50;1.40;;;17.30;69.80;;;;;;4989340;28;20436;-14
2022/11/21 03:02:10;;;;;;;1.35;1.25;;;17.30;69.40;;;;;;4991439;28;20046;-15
2022/11/21 03:04:36;;;;;;;1.20;1.10;;;17.20;69.80;;;;;;4994992;28;20042;-15
2022/11/21 03:07:01;;;;;;;1.17;1.08;;;17.10;70.00;;;;;;4991497;28;20065;-14
2022/11/21 03:09:27;;;;;;;1.10;1.00;;;17.20;69.90;;;;;;4994280;28;20535;-15
2022/11/21 03:11:52;;;;;;;0.85;0.85;;;17.20;70.10;;;;;;5005565;28;20046;-14
2022/11/21 03:14:18;;;;;;;1.20;1.00;;;17.10;70.40;;;;;;5009996;28;20126;-14
2022/11/21 03:16:43;;;;;;;0.82;0.82;;;17.10;70.10;;;;;;5010627;28;20045;-16
2022/11/21 03:19:09;;;;;;;1.13;0.95;;;17.10;70.00;;;;;;5016720;28;20103;-15
2022/11/21 03:21:34;;;;;;;1.00;0.90;;;17.10;70.30;;;;;;5015142;28;20497;-14
2022/11/21 03:24:00;;;;;;;1.00;1.00;;;17.10;70.40;;;;;;5015151;28;20089;-15
2022/11/21 03:26:26;;;;;;;0.90;0.90;;;17.20;70.10;;;;;;5004474;28;20046;-15
2022/11/21 03:28:51;;;;;;;1.13;1.02;;;17.00;70.10;;;;;;5012274;28;20411;-15
2022/11/21 03:31:17;;;;;;;0.98;0.77;;;17.10;70.00;;;;;;5014095;28;20044;-15
2022/11/21 03:33:42;;;;;;;1.00;0.70;;;17.00;69.90;;;;;;5007493;28;20391;-16
2022/11/21 03:36:08;;;;;;;1.10;0.98;;;17.10;70.10;;;;;;5008946;28;20054;-15
2022/11/21 03:38:33;;;;;;;1.33;0.95;;;17.00;70.10;;;;;;5005912;28;20058;-15
2022/11/21 03:41:03;;;;;;;0.95;0.80;;;17.10;70.00;;;;;;5007410;28;20076;-15
2022/11/21 03:43:29;;;;;;;0.95;0.85;;;17.10;70.10;;;;;;5010409;28;20567;-15
2022/11/21 03:45:55;;;;;;;1.10;1.00;;;17.00;70.20;;;;;;5013181;28;20041;-15
2022/11/21 03:48:20;;;;;;;0.70;0.70;;;17.00;70.40;;;;;;5004660;28;20053;-15
2022/11/21 03:50:46;;;;;;;1.17;1.10;;;17.40;69.50;;;;;;5009464;28;20041;-19
2022/11/21 03:53:11;;;;;;;1.13;0.90;;;17.20;69.70;;;;;;5012408;28;20491;-16
2022/11/21 03:55:37;;;;;;;0.93;0.93;;;17.10;70.00;;;;;;5002652;28;20140;-15
2022/11/21 03:58:02;;;;;;;1.00;0.82;;;17.00;70.10;;;;;;4995328;28;20076;-14
2022/11/21 04:00:28;;;;;;;1.02;0.75;;;17.00;69.90;;;;;;5004600;28;20052;-15
2022/11/21 04:02:53;;;;;;;0.80;0.73;;;17.10;69.90;;;;;;5014977;28;20037;-19
2022/11/21 04:05:19;;;;;;;0.70;0.70;;;17.20;69.50;;;;;;5008185;28;20469;-16
2022/11/21 04:07:45;;;;;;;0.80;0.80;;;17.10;69.90;;;;;;5000156;28;20044;-15
2022/11/21 04:10:10;;;;;;;1.00;0.90;;;17.20;69.50;;;;;;4997150;28;20046;-16
2022/11/21 04:12:36;;;;;;;0.88;0.88;;;17.10;69.50;;;;;;5014774;28;20053;-15
2022/11/21 04:15:02;;;;;;;0.80;0.80;;;17.10;70.00;;;;;;4995777;28;20412;-15
2022/11/21 04:17:27;;;;;;;0.68;0.68;;;17.20;69.40;;;;;;4991714;28;20108;-14
2022/11/21 04:19:53;;;;;;;0.98;0.80;;;17.10;69.60;;;;;;4991629;28;20129;-15
2022/11/21 04:22:18;;;;;;;0.90;0.82;;;17.30;69.40;;;;;;5006245;28;20391;-15
2022/11/21 04:24:44;;;;;;;0.95;0.90;;;17.10;69.50;;;;;;5000731;28;20055;-15
2022/11/21 04:27:10;;;;;;;1.20;0.82;;;17.10;69.90;;;;;;5004552;28;20065;-14
2022/11/21 04:29:35;;;;;;;1.05;1.00;;;17.30;69.00;;;;;;5008124;28;20042;-15
2022/11/21 04:32:01;;;;;;;1.08;0.60;;;17.10;69.70;;;;;;5013507;28;20046;-15
2022/11/21 04:34:26;;;;;;;0.77;0.77;;;17.00;69.70;;;;;;5009641;28;20156;-15
2022/11/21 04:36:52;;;;;;;1.27;1.08;;;17.20;69.30;;;;;;5007774;28;20159;-15
2022/11/21 04:39:17;;;;;;;0.65;0.65;;;17.20;69.10;;;;;;5024789;28;20056;-15
2022/11/21 04:41:43;;;;;;;0.85;0.85;;;17.20;69.30;;;;;;5012724;28;20038;-15
2022/11/21 04:44:08;;;;;;;1.10;1.00;;;17.10;69.30;;;;;;5006526;28;20046;-15
2022/11/21 04:46:34;;;;;;;1.13;0.90;;;17.00;69.60;;;;;;5011769;28;20515;-14
2022/11/21 04:49:00;;;;;;;1.30;1.20;;;17.10;69.40;;;;;;5004785;28;20046;-14
2022/11/21 04:51:25;;;;;;;0.68;0.60;;;17.10;69.40;;;;;;4991791;28;20042;-14
2022/11/21 04:53:51;;;;;;;0.77;0.77;;;17.10;69.40;;;;;;4992524;28;20042;-15
2022/11/21 04:56:16;;;;;;;1.10;0.90;;;17.20;69.30;;;;;;4992132;28;20046;-14
2022/11/21 04:58:43;;;;;;;1.10;0.88;;;17.10;69.60;;;;;;4993065;28;20617;-16
2022/11/21 05:01:09;;;;;;;0.75;0.75;;;17.50;68.60;;;;;;4995850;28;20427;-15
2022/11/21 05:03:34;;;;;;;1.15;0.90;;;17.40;68.50;;;;;;4993386;28;20072;-14
2022/11/21 05:06:00;;;;;;;0.93;0.70;;;17.20;68.80;;;;;;5002533;28;20060;-15
2022/11/21 05:08:25;;;;;;;0.75;0.75;;;17.10;69.20;;;;;;5009989;28;20172;-15
2022/11/21 05:13:35;;;;;;;0.65;0.65;;;17.40;68.80;;;;;;5000621;28;20438;-15
2022/11/21 05:16:01;;;;;;;2.00;0.77;;;17.30;69.30;;;;;;4990685;28;20046;-14
2022/11/21 05:18:26;;;;;;;0.77;0.77;;;17.50;68.30;;;;;;4991898;28;20404;-15
2022/11/21 05:20:52;;;;;;;0.75;0.73;;;17.30;68.60;;;;;;4990374;28;20100;-14
2022/11/21 05:23:17;;;;;;;0.70;0.70;;;17.10;69.10;;;;;;4995260;28;20038;-16
2022/11/21 05:25:43;;;;;;;0.80;0.80;;;17.30;68.50;;;;;;5003669;28;20507;-14
2022/11/21 05:28:08;;;;;;;0.73;0.68;;;17.30;68.70;;;;;;5009650;28;20117;-15
2022/11/21 05:30:36;;;;;;;0.80;0.80;;;17.60;67.80;;;;;;4996020;28;20042;-15
2022/11/21 05:33:01;;;;;;;0.70;0.70;;;17.30;68.20;;;;;;5013311;28;20084;-14
2022/11/21 05:35:27;;;;;;;0.93;0.82;;;17.10;68.90;;;;;;5012861;28;20046;-15
2022/11/21 05:37:56;;;;;;;1.27;0.80;;;17.10;69.40;;;;;;4997862;28;20051;-15
2022/11/21 05:40:22;;;;;;;0.98;0.90;;;17.10;69.20;;;;;;4993096;28;20041;-15
2022/11/21 05:45:32;;;;;;;0.93;0.80;;;17.10;69.00;;;;;;4994035;28;20085;-16
2022/11/21 05:47:57;;;;;;;0.70;0.70;;;17.20;69.30;;;;;;4989356;28;20066;-15
2022/11/21 05:50:23;;;;;;;0.52;0.50;;;17.10;69.10;;;;;;5005188;28;20045;-14
2022/11/21 05:52:49;;;;;;;0.85;0.80;;;17.10;69.20;;;;;;5013018;28;20522;-15
2022/11/21 05:55:14;;;;;;;0.70;0.70;;;17.20;69.10;;;;;;5011249;28;20057;-14
2022/11/21 05:57:40;;;;;;;2.03;0.70;;;17.10;69.10;;;;;;5012277;28;20045;-15
2022/11/21 06:00:06;;;;;;;0.85;0.70;;;17.30;68.70;;;;;;5000022;28;20410;-15
2022/11/21 06:05:16;;;;;;;1.00;0.70;;;17.40;68.30;;;;;;5008751;28;20076;-15
2022/11/21 06:07:41;;;;;;;1.88;0.88;;;17.20;69.00;;;;;;5040015;28;20073;-15
2022/11/21 06:10:07;;;;;;;0.77;0.77;;;17.10;69.20;;;;;;5006937;28;21929;-15
2022/11/21 06:12:33;;;;;;;2.10;0.98;;;17.10;69.40;;;;;;5005209;28;20046;-14
2022/11/21 06:14:58;;;;;;;1.10;0.90;;;17.00;69.70;;;;;;5008391;28;20515;-16
2022/11/21 06:17:24;;;;;;;1.40;0.73;;;17.10;69.50;;;;;;5006936;28;20053;-16
2022/11/21 06:19:50;;;;;;;0.90;0.75;;;17.10;69.40;;;;;;5009221;28;20042;-14
2022/11/21 06:22:15;;;;;;;1.08;0.60;;;17.10;69.30;;;;;;5012356;28;20133;-14
2022/11/21 06:24:41;;;;;;;1.08;0.80;;;17.00;69.50;;;;;;4996713;28;20503;-16
2022/11/21 06:27:06;;;;;;;1.15;1.05;;;17.00;69.40;;;;;;4988012;28;20062;-15
2022/11/21 06:29:32;;;;;;;0.75;0.60;;;17.10;69.50;;;;;;4993779;28;20035;-14
2022/11/21 06:31:57;;;;;;;0.70;0.70;;;17.00;69.40;;;;;;4989719;28;20117;-15
2022/11/21 06:34:25;;;;;;;0.80;0.70;;;17.00;69.60;;;;;;5002189;28;20034;-15
2022/11/21 06:36:51;;;;;;;1.00;0.90;;;17.00;69.70;;;;;;4995394;28;20483;-14
2022/11/21 06:39:16;;;;;;;1.10;0.98;;;17.00;69.80;;;;;;5006650;28;20526;-15
2022/11/21 06:41:42;;;;;;;0.80;0.73;;;16.90;69.70;;;;;;5008921;28;20037;-14
2022/11/21 06:44:07;;;;;;;0.47;0.47;;;16.90;69.90;;;;;;5020122;28;20125;-15
2022/11/21 06:46:33;;;;;;;0.77;0.70;;;16.90;69.70;;;;;;5012886;28;20050;-18
2022/11/21 06:48:58;;;;;;;0.90;0.77;;;16.90;69.80;;;;;;5016126;28;20450;-19
2022/11/21 06:51:24;;;;;;;0.60;0.60;;;16.90;69.70;;;;;;5019601;28;20034;-19
2022/11/21 06:53:54;;;;;;;1.05;0.82;;;17.00;69.60;;;;;;5023968;28;20526;-19
2022/11/21 06:56:21;;;;;;;0.55;0.55;;;16.90;69.80;;;;;;5019924;28;20049;-18
2022/11/21 06:58:46;;;;;;;0.75;0.55;;;16.90;69.80;;;;;;5019416;28;20116;-18
2022/11/21 07:01:12;;;;;;;0.80;0.80;;;16.90;69.70;;;;;;5019324;28;20527;-18
2022/11/21 07:03:37;;;;;;;0.50;0.50;;;16.90;69.70;;;;;;5017465;28;20049;-18
2022/11/21 07:06:03;;;;;;;0.70;0.70;;;16.90;70.00;;;;;;5010323;28;20426;-19
2022/11/21 07:08:30;;;;;;;0.88;0.73;;;16.90;70.00;;;;;;5019452;28;20050;-19
2022/11/21 07:10:59;;;;;;;0.63;0.63;;;16.90;69.80;;;;;;5016519;28;20498;-18
2022/11/21 07:13:25;;;;;;;0.93;0.80;;;17.00;70.50;;;;;;5014915;28;20042;-25
2022/11/21 07:15:52;;;;;;;1.67;1.20;;;16.90;70.00;;;;;;5018900;28;20034;-19
2022/11/21 07:18:19;;;;;;;0.60;0.60;;;16.90;69.70;;;;;;5013799;28;20037;-18
2022/11/21 07:20:44;;;;;;;0.88;0.70;;;16.90;69.60;;;;;;5019848;28;20506;-18
2022/11/21 07:23:10;;;;;;;0.80;0.60;;;17.00;69.50;;;;;;5015335;28;20052;-18
2022/11/21 07:25:36;;;;;;;0.90;0.57;;;17.00;69.50;;;;;;5020062;28;20045;-18
2022/11/21 07:28:01;;;;;;;0.60;0.50;;;17.00;69.60;;;;;;5012008;28;20096;-18
2022/11/21 07:30:27;;;;;;;0.50;0.50;;;16.90;69.70;;;;;;5017848;28;20041;-18
2022/11/21 07:33:00;;;;;;;1.73;0.73;;;17.10;69.80;;;;;;5016970;28;20038;-19
2022/11/21 07:35:25;;;;;;;0.88;0.50;;;17.10;69.10;;;;;;5015065;28;20125;-20
2022/11/21 07:37:51;;;;;;;1.00;0.90;;;17.10;69.20;;;;;;5017671;28;20125;-20
2022/11/21 07:40:17;;;;;;;0.85;0.85;;;17.10;69.20;;;;;;5015011;28;20047;-20
2022/11/21 07:42:43;;;;;;;1.38;0.80;;;17.10;69.30;;;;;;5006437;28;20112;-19
2022/11/21 07:45:09;;;;;;;1.00;0.85;;;17.00;69.50;;;;;;4998315;28;20050;-19
2022/11/21 07:47:34;;;;;;;0.82;0.63;;;16.90;69.60;;;;;;5016244;28;20068;-20
2022/11/21 07:50:00;;;;;;;1.05;0.85;;;16.80;70.20;;;;;;5014774;28;20115;-20
2022/11/21 07:52:29;;;;;;;1.05;0.50;;;16.80;70.30;;;;;;5012192;28;20049;-20
2022/11/21 07:54:54;;;;;;;2.17;0.80;;;16.80;70.40;;;;;;5006149;28;20519;-21
2022/11/21 07:57:20;;;;;;;0.57;0.57;;;16.80;70.20;;;;;;5016943;28;20048;-20
2022/11/21 07:59:46;;;;;;;2.10;0.90;;;16.70;70.40;;;;;;5015713;28;20573;-20
2022/11/21 08:02:27;;;;;;;0.95;0.77;;;16.80;71.20;;;;;;5007858;28;20561;-20
2022/11/21 08:04:53;;;;;;;0.93;0.85;;;16.80;70.50;;;;;;5012621;28;20400;-21
2022/11/21 08:07:19;;;;;;;1.65;0.95;;;16.80;70.40;;;;;;5002622;28;20057;-21
2022/11/21 08:09:45;;;;;;;1.13;0.80;;;16.90;70.20;;;;;;5008076;28;20049;-20
2022/11/21 08:12:11;;;;;;;0.70;0.70;;;16.90;70.20;;;;;;5014013;28;20038;-19
2022/11/21 08:14:36;;;;;;;0.70;0.70;;;16.90;70.30;;;;;;5011223;28;20570;-20
2022/11/21 08:17:03;;;;;;;0.70;0.70;;;16.90;70.00;;;;;;5011841;28;20125;-20
2022/11/21 08:19:28;;;;;;;0.95;0.70;;;17.00;70.10;;;;;;5009179;28;20136;-20
2022/11/21 08:21:54;;;;;;;0.88;0.75;;;17.20;69.80;;;;;;5013528;28;20045;-20
2022/11/21 08:24:19;;;;;;;1.50;0.95;;;17.10;69.60;;;;;;5013657;28;20044;-20
2022/11/21 08:26:45;;;;;;;0.77;0.73;;;17.20;69.30;;;;;;5012574;28;20049;-21
2022/11/21 08:29:11;;;;;;;0.98;0.80;;;17.40;69.00;;;;;;5014509;28;20081;-20
2022/11/21 08:31:40;;;;;;;1.25;0.90;;;17.30;68.80;;;;;;5008099;28;20049;-20
2022/11/21 08:34:05;;;;;;;0.77;0.77;;;17.20;69.00;;;;;;5006189;28;20053;-20
2022/11/21 08:36:31;;;;;;;1.00;0.80;;;17.30;68.70;;;;;;5011100;28;20041;-21
2022/11/21 08:38:57;;;;;;;0.93;0.73;;;17.30;69.10;;;;;;5011915;28;20593;-20
2022/11/21 08:44:07;;;;;;;0.68;0.68;;;17.50;68.50;;;;;;5012771;28;20064;-20
2022/11/21 08:46:36;;;;;;;0.65;0.60;;;17.50;68.30;;;;;;5011155;28;20069;-20
2022/11/21 08:49:05;;;;;;;2.15;1.10;;;17.60;68.50;;;;;;5010820;28;20519;-19
2022/11/21 08:51:31;;;;;;;0.90;0.70;;;17.50;68.30;;;;;;5008014;28;20065;-20
2022/11/21 08:53:56;;;;;;;2.28;0.80;;;17.50;68.40;;;;;;5008468;28;20534;-20
2022/11/21 08:56:22;;;;;;;3.25;1.00;;;17.40;68.50;;;;;;5008657;28;20041;-20
2022/11/21 08:58:48;;;;;;;1.20;0.70;;;17.40;68.80;;;;;;5009368;28;20406;-19
2022/11/21 09:01:13;;;;;;;0.77;0.77;;;17.40;68.90;;;;;;5008693;28;20049;-20
2022/11/21 09:03:39;;;;;;;0.70;0.70;;;17.50;68.30;;;;;;5010938;28;20187;-20
2022/11/21 09:06:05;;;;;;;0.85;0.85;;;17.40;68.30;;;;;;5003613;28;20041;-20
2022/11/21 09:08:30;;;;;;;0.70;0.68;;;17.70;68.10;;;;;;5009691;28;20125;-19
2022/11/21 09:10:56;;;;;;;0.57;0.55;;;17.50;68.20;;;;;;5009135;28;20121;-20
2022/11/21 09:13:22;;;;;;;1.08;0.60;;;17.40;68.40;;;;;;5001284;28;20049;-20
2022/11/21 09:18:32;;;;;;;1.35;0.70;;;17.30;69.00;;;;;;5003392;28;20075;-19
2022/11/21 09:20:58;;;;;;;0.40;0.40;;;17.40;69.20;;;;;;4988080;28;20039;-20
2022/11/21 09:23:23;;;;;;;1.15;0.65;;;17.60;68.40;;;;;;4990016;28;20226;-19
2022/11/21 09:25:49;;;;;;;1.30;0.77;;;17.40;68.40;;;;;;4992751;28;20137;-19
2022/11/21 09:28:15;;;;;;;0.93;0.70;;;17.60;68.10;;;;;;4990771;28;20056;-19
2022/11/21 09:30:40;;;;;;;0.60;0.50;;;17.70;67.60;;;;;;5003160;28;20077;-19
2022/11/21 09:33:10;;;;;;;0.88;0.68;;;18.10;66.40;;;;;;5017221;28;20124;-19
2022/11/21 09:35:36;;;;;;;0.70;0.50;;;18.00;66.80;;;;;;4992942;28;20041;-20
2022/11/21 09:38:02;;;;;;;1.58;0.68;;;17.90;66.30;;;;;;4990152;28;20060;-18
2022/11/21 09:40:30;;;;;;;0.90;0.80;;;18.10;66.50;;;;;;4994703;28;20057;-20
2022/11/21 09:43:10;;;;;;;0.70;0.52;;;17.90;66.90;;;;;;4988066;28;20101;-19
2022/11/21 09:45:51;;;;;;;0.52;0.45;;;18.10;66.30;;;;;;5030181;28;20457;-21
2022/11/21 09:48:21;;;;;;;0.70;0.65;;;18.10;66.10;;;;;;5010420;28;20418;-19
2022/11/21 09:50:49;;;;;;;1.55;0.63;;;18.10;66.30;;;;;;5025117;28;20414;-24
2022/11/21 09:53:32;;;;;;;0.60;0.60;;;18.00;66.50;;;;;;5007224;28;20034;-20
2022/11/21 09:56:10;;;;;;;0.70;0.60;;;17.90;66.50;;;;;;5005305;28;20038;-19
2022/11/21 09:58:43;;;;;;;1.08;0.60;;;17.80;67.30;;;;;;4990541;28;20049;-21
2022/11/21 10:01:12;;;;;;;0.80;0.47;;;17.90;67.00;;;;;;5009806;28;20034;-20
2022/11/21 10:03:51;;;;;;;0.50;0.40;;;18.10;66.20;;;;;;4986100;28;20042;-19
2022/11/21 10:06:27;;;;;;;1.30;0.40;;;18.30;65.60;;;;;;4992684;28;20466;-19
2022/11/21 10:09:06;;;;;;;0.75;0.50;;;18.30;65.60;;;;;;5004891;28;20045;-20
2022/11/21 10:12:35;;;;;;;0.50;0.40;;;18.10;66.00;;;;;;5017667;28;20049;-20
2022/11/21 10:14:37;;;;;;;0.52;0.52;;;18.20;66.20;;;;;;5011595;28;20053;-20
2022/11/21 10:17:12;;;;;;;1.35;0.60;;;17.90;66.40;;;;;;5012147;28;20682;-20
2022/11/21 10:20:09;;;;;;;0.73;0.40;;;17.90;66.80;;;;;;5040107;28;20068;-20
2022/11/21 10:22:56;;;;;;;0.60;0.50;;;18.20;66.00;;;;;;5005440;28;20065;-21
2022/11/21 10:25:37;;;;;;;0.75;0.70;;;18.20;66.30;;;;;;4992317;28;20057;-21
2022/11/21 10:28:14;;;;;;;0.68;0.60;;;17.90;66.40;;;;;;5002903;28;20050;-20
2022/11/21 10:30:42;;;;;;;1.80;0.70;;;17.80;66.70;;;;;;5011781;28;20037;-20
2022/11/21 10:33:12;;;;;;;0.30;0.30;;;17.50;68.00;;;;;;5011684;28;20041;-20
2022/11/21 10:35:42;;;;;;;0.38;0.30;;;17.60;68.00;;;;;;5009133;28;20585;-20
2022/11/21 10:38:19;;;;;;;2.13;0.55;;;17.70;67.60;;;;;;5011096;28;20037;-19
2022/11/21 10:41:00;;;;;;;0.77;0.50;;;17.70;67.20;;;;;;5028378;28;20040;-21
2022/11/21 10:46:20;;;;;;;0.40;0.40;;;17.70;67.20;;;;;;5006420;28;20043;-20
2022/11/21 10:49:12;;;;;;;0.82;0.50;;;17.70;67.50;;;;;;5014538;28;20037;-21
2022/11/21 10:51:52;;;;;;;0.65;0.50;;;17.60;67.60;;;;;;4986922;28;20422;-20
2022/11/21 10:54:32;;;;;;;0.70;0.70;;;17.60;67.70;;;;;;4992427;28;20052;-20
2022/11/21 10:57:01;;;;;;;0.65;0.47;;;17.60;67.80;;;;;;4996268;28;20466;-20
2022/11/21 10:59:28;;;;;;;0.77;0.40;;;17.50;68.00;;;;;;4990494;28;20133;-20
2022/11/21 11:02:22;;;;;;;0.45;0.45;;;17.60;67.80;;;;;;4995378;28;20038;-20
2022/11/21 11:04:47;;;;;;;0.50;0.50;;;17.60;67.80;;;;;;4994603;28;20157;-20
2022/11/21 11:07:26;;;;;;;1.80;0.40;;;17.60;67.70;;;;;;4999853;28;20084;-20
2022/11/21 11:10:12;;;;;;;0.52;0.43;;;17.50;67.80;;;;;;4992538;28;20050;-19
2022/11/21 11:15:22;;;;;;;;;;;17.50;68.40;;;;;;4644717;28;10000219;-20
2022/11/21 11:17:52;;;;;;;0.70;0.40;;;17.40;68.50;;;;;;5027566;28;19919;-20
2022/11/21 11:20:33;;;;;;;0.32;0.30;;;17.30;68.20;;;;;;4999705;28;20042;-20
2022/11/21 11:23:06;;;;;;;0.63;0.63;;;17.40;68.50;;;;;;5006362;28;20072;-20
2022/11/21 11:25:35;;;;;;;0.50;0.50;;;17.30;68.40;;;;;;5013084;28;20053;-20
2022/11/21 11:28:05;;;;;;;0.52;0.30;;;17.30;68.70;;;;;;5011066;28;20596;-20
2022/11/21 11:30:30;;;;;;;1.17;0.52;;;17.30;68.90;;;;;;5006590;28;20048;-20
2022/11/21 11:32:56;;;;;;;0.45;0.45;;;17.20;69.00;;;;;;5002652;28;20045;-21
2022/11/21 11:35:31;;;;;;;0.40;0.30;;;17.20;69.10;;;;;;5010396;28;20021;-20
2022/11/21 11:38:02;;;;;;;0.40;0.40;;;17.20;69.20;;;;;;5008333;28;20397;-21
2022/11/21 11:40:35;;;;;;;0.63;0.30;;;17.20;69.20;;;;;;5007373;28;20088;-22
2022/11/21 11:47:37;;;;;;;0.30;0.30;;;17.20;69.00;;;;;;4986897;28;20061;-20
2022/11/21 11:50:10;;;;;;;0.68;0.60;;;17.20;69.10;;;;;;4990039;28;20050;-20
2022/11/21 11:52:59;;;;;;;0.75;0.65;;;17.30;69.00;;;;;;4989876;28;20077;-20
2022/11/21 11:55:47;;;;;;;0.90;0.43;;;17.40;68.50;;;;;;4985103;28;20134;-21
2022/11/21 11:58:41;;;;;;;0.75;0.47;;;17.30;68.60;;;;;;4985190;28;20192;-19
2022/11/21 12:01:19;;;;;;;0.52;0.52;;;17.40;68.60;;;;;;4988102;28;20050;-27
2022/11/21 12:03:47;;;;;;;0.60;0.60;;;17.30;68.70;;;;;;5019349;28;20787;-20
2022/11/21 12:06:24;;;;;;;0.47;0.40;;;17.40;68.80;;;;;;5012915;28;20042;-20
2022/11/21 12:09:04;;;;;;;0.60;0.50;;;17.50;68.40;;;;;;5001614;28;20092;-20
2022/11/21 12:12:06;;;;;;;0.38;0.35;;;17.80;67.70;;;;;;5005950;28;20056;-19
2022/11/21 12:18:11;;;;;;;1.20;0.50;;;18.20;65.90;;;;;;4986808;28;20037;-21
2022/11/21 12:20:47;;;;;;;0.68;0.30;;;18.50;64.90;;;;;;5007943;28;20064;-20
2022/11/21 12:23:13;;;;;;;0.40;0.30;;;18.40;65.40;;;;;;5005588;28;20402;-19
2022/11/21 12:26:01;;;;;;;0.50;0.32;;;18.30;65.40;;;;;;5007124;28;20049;-20
2022/11/21 12:28:45;;;;;;;1.42;0.50;;;18.10;65.80;;;;;;4992073;28;20037;-20
2022/11/21 12:31:51;;;;;;;0.52;0.40;;;18.10;66.20;;;;;;5006048;28;20467;-20
2022/11/21 12:34:50;;;;;;;0.80;0.40;;;18.40;65.20;;;;;;5003324;28;20034;-20
2022/11/21 12:37:35;;;;;;;0.40;0.30;;;18.60;64.60;;;;;;5005627;28;20129;-20
2022/11/21 12:40:28;;;;;;;0.60;0.22;;;18.50;64.80;;;;;;5013083;28;20050;-20
2022/11/21 12:43:05;;;;;;;0.60;0.35;;;18.40;64.70;;;;;;5023314;28;20061;-22
2022/11/21 12:45:41;;;;;;;0.60;0.38;;;18.50;64.90;;;;;;5005930;28;20103;-20
2022/11/21 12:54:46;;;;;;;1.00;0.60;;;18.50;64.40;;;;;;5002403;28;20805;-20
2022/11/21 12:57:16;;;;;;;0.70;0.50;;;18.10;65.50;;;;;;5013242;28;20038;-20
2022/11/21 12:59:53;;;;;;;1.20;0.50;;;18.00;66.10;;;;;;5011521;28;20124;-20
2022/11/21 13:02:27;;;;;;;0.52;0.40;;;18.00;66.30;;;;;;5008395;28;20068;-22
2022/11/21 13:04:54;;;;;;;0.90;0.65;;;17.90;66.80;;;;;;5010440;28;20512;-20
2022/11/21 13:07:20;;;;;;;0.60;0.40;;;17.70;68.00;;;;;;4988547;28;20034;-20
2022/11/21 13:09:47;;;;;;;0.73;0.70;;;17.70;67.30;;;;;;4988942;28;20573;-20
2022/11/21 13:12:32;;;;;;;1.05;0.68;;;17.70;67.40;;;;;;4987741;28;20136;-20
2022/11/21 13:15:19;;;;;;;0.50;0.30;;;17.70;67.50;;;;;;4986584;28;20043;-21
2022/11/21 13:18:05;;;;;;;0.82;0.60;;;17.70;67.50;;;;;;4986458;28;20042;-20
2022/11/21 13:20:35;;;;;;;0.68;0.68;;;17.70;67.40;;;;;;5001618;28;20301;-20
2022/11/21 13:23:05;;;;;;;1.08;0.47;;;17.90;67.10;;;;;;5019919;28;20042;-20
2022/11/21 13:25:30;;;;;;;0.80;0.50;;;17.90;66.70;;;;;;5009076;28;20053;-20
2022/11/21 13:28:17;;;;;;;0.88;0.52;;;17.90;66.60;;;;;;5006411;28;20528;-19
2022/11/21 13:30:53;;;;;;;1.00;0.60;;;17.90;66.50;;;;;;5008629;28;20045;-20
2022/11/21 13:33:34;;;;;;;0.43;0.40;;;17.80;66.70;;;;;;5025495;28;20097;-20